sensor_id;sensor_type;location;lat;lon;timestamp;P1;durP1;ratioP1;P2;durP2;ratioP2
23376;SDS011;14353;46.070;13.222;2023-02-01T00:00:21;15.10;;;12.73;;
23376;SDS011;14353;46.070;13.222;2023-02-01T00:02:47;15.75;;;12.10;;
23376;SDS011;14353;46.070;13.222;2023-02-01T00:05:12;15.20;;;12.57;;
23376;SDS011;14353;46.070;13.222;2023-02-01T00:07:38;15.65;;;12.70;;
23376;SDS011;14353;46.070;13.222;2023-02-01T00:10:05;15.95;;;12.77;;
23376;SDS011;14353;46.070;13.222;2023-02-01T00:12:32;14.88;;;12.38;;
23376;SDS011;14353;46.070;13.222;2023-02-01T00:14:57;15.75;;;13.27;;
23376;SDS011;14353;46.070;13.222;2023-02-01T00:17:23;15.73;;;12.27;;
23376;SDS011;14353;46.070;13.222;2023-02-01T00:19:49;15.13;;;12.85;;
23376;SDS011;14353;46.070;13.222;2023-02-01T00:22:15;16.00;;;13.18;;
23376;SDS011;14353;46.070;13.222;2023-02-01T00:24:41;16.30;;;12.63;;
23376;SDS011;14353;46.070;13.222;2023-02-01T00:27:06;15.30;;;12.70;;
23376;SDS011;14353;46.070;13.222;2023-02-01T00:29:32;15.15;;;13.07;;
23376;SDS011;14353;46.070;13.222;2023-02-01T00:31:58;15.65;;;12.60;;
23376;SDS011;14353;46.070;13.222;2023-02-01T00:34:23;16.48;;;12.88;;
23376;SDS011;14353;46.070;13.222;2023-02-01T00:36:49;16.85;;;12.77;;
23376;SDS011;14353;46.070;13.222;2023-02-01T00:39:15;15.10;;;12.98;;
23376;SDS011;14353;46.070;13.222;2023-02-01T00:41:41;14.48;;;11.88;;
23376;SDS011;14353;46.070;13.222;2023-02-01T00:44:07;16.10;;;12.98;;
23376;SDS011;14353;46.070;13.222;2023-02-01T00:46:33;14.95;;;12.45;;
23376;SDS011;14353;46.070;13.222;2023-02-01T00:48:59;16.73;;;12.90;;
23376;SDS011;14353;46.070;13.222;2023-02-01T00:51:25;16.23;;;13.38;;
23376;SDS011;14353;46.070;13.222;2023-02-01T00:53:52;15.48;;;12.50;;
23376;SDS011;14353;46.070;13.222;2023-02-01T00:56:19;15.65;;;12.77;;
23376;SDS011;14353;46.070;13.222;2023-02-01T00:58:45;14.52;;;12.40;;
23376;SDS011;14353;46.070;13.222;2023-02-01T01:01:16;14.95;;;12.52;;
23376;SDS011;14353;46.070;13.222;2023-02-01T01:03:45;15.52;;;12.57;;
23376;SDS011;14353;46.070;13.222;2023-02-01T01:06:14;13.00;;;11.48;;
23376;SDS011;14353;46.070;13.222;2023-02-01T01:08:41;14.07;;;12.45;;
23376;SDS011;14353;46.070;13.222;2023-02-01T01:11:11;15.43;;;12.02;;
23376;SDS011;14353;46.070;13.222;2023-02-01T01:13:39;14.65;;;12.43;;
23376;SDS011;14353;46.070;13.222;2023-02-01T01:16:07;15.50;;;12.55;;
23376;SDS011;14353;46.070;13.222;2023-02-01T01:18:34;14.93;;;12.65;;
23376;SDS011;14353;46.070;13.222;2023-02-01T01:21:00;14.65;;;12.32;;
23376;SDS011;14353;46.070;13.222;2023-02-01T01:23:28;13.60;;;12.10;;
23376;SDS011;14353;46.070;13.222;2023-02-01T01:25:54;13.75;;;11.80;;
23376;SDS011;14353;46.070;13.222;2023-02-01T01:28:20;14.45;;;11.88;;
23376;SDS011;14353;46.070;13.222;2023-02-01T01:30:46;14.88;;;12.32;;
23376;SDS011;14353;46.070;13.222;2023-02-01T01:33:12;14.20;;;12.15;;
23376;SDS011;14353;46.070;13.222;2023-02-01T01:35:38;13.70;;;11.50;;
23376;SDS011;14353;46.070;13.222;2023-02-01T01:38:04;14.52;;;11.93;;
23376;SDS011;14353;46.070;13.222;2023-02-01T01:40:29;15.60;;;12.35;;
23376;SDS011;14353;46.070;13.222;2023-02-01T01:42:56;14.27;;;11.73;;
23376;SDS011;14353;46.070;13.222;2023-02-01T01:47:59;15.25;;;12.80;;
23376;SDS011;14353;46.070;13.222;2023-02-01T01:50:32;13.15;;;11.68;;
23376;SDS011;14353;46.070;13.222;2023-02-01T01:53:02;13.85;;;11.68;;
23376;SDS011;14353;46.070;13.222;2023-02-01T01:55:31;14.27;;;11.75;;
23376;SDS011;14353;46.070;13.222;2023-02-01T01:58:03;14.82;;;11.80;;
23376;SDS011;14353;46.070;13.222;2023-02-01T02:00:33;13.32;;;11.75;;
23376;SDS011;14353;46.070;13.222;2023-02-01T02:03:34;14.55;;;11.50;;
23376;SDS011;14353;46.070;13.222;2023-02-01T02:06:00;13.50;;;11.43;;
23376;SDS011;14353;46.070;13.222;2023-02-01T02:08:29;12.57;;;11.02;;
23376;SDS011;14353;46.070;13.222;2023-02-01T02:10:54;13.60;;;11.13;;
23376;SDS011;14353;46.070;13.222;2023-02-01T02:13:31;14.02;;;11.50;;
23376;SDS011;14353;46.070;13.222;2023-02-01T02:38:44;14.00;;;11.07;;
23376;SDS011;14353;46.070;13.222;2023-02-01T02:41:43;12.98;;;10.88;;
23376;SDS011;14353;46.070;13.222;2023-02-01T02:44:45;13.60;;;11.23;;
23376;SDS011;14353;46.070;13.222;2023-02-01T02:53:17;12.45;;;10.88;;
23376;SDS011;14353;46.070;13.222;2023-02-01T02:56:06;13.07;;;11.13;;
23376;SDS011;14353;46.070;13.222;2023-02-01T02:58:52;13.27;;;10.75;;
23376;SDS011;14353;46.070;13.222;2023-02-01T03:01:37;12.73;;;10.57;;
23376;SDS011;14353;46.070;13.222;2023-02-01T03:04:22;11.77;;;10.50;;
23376;SDS011;14353;46.070;13.222;2023-02-01T03:06:51;11.70;;;10.05;;
23376;SDS011;14353;46.070;13.222;2023-02-01T03:12:10;12.60;;;10.10;;
23376;SDS011;14353;46.070;13.222;2023-02-01T03:14:57;13.07;;;11.02;;
23376;SDS011;14353;46.070;13.222;2023-02-01T03:17:33;12.63;;;10.70;;
23376;SDS011;14353;46.070;13.222;2023-02-01T03:20:03;12.25;;;10.13;;
23376;SDS011;14353;46.070;13.222;2023-02-01T03:22:30;13.23;;;10.25;;
23376;SDS011;14353;46.070;13.222;2023-02-01T03:25:10;11.35;;;9.98;;
23376;SDS011;14353;46.070;13.222;2023-02-01T03:30:40;14.13;;;10.45;;
23376;SDS011;14353;46.070;13.222;2023-02-01T03:33:18;11.90;;;10.07;;
23376;SDS011;14353;46.070;13.222;2023-02-01T03:38:22;12.48;;;10.48;;
23376;SDS011;14353;46.070;13.222;2023-02-01T03:46:39;11.37;;;9.93;;
23376;SDS011;14353;46.070;13.222;2023-02-01T03:49:11;11.77;;;10.05;;
23376;SDS011;14353;46.070;13.222;2023-02-01T03:51:42;12.05;;;10.45;;
23376;SDS011;14353;46.070;13.222;2023-02-01T03:54:09;11.88;;;10.20;;
23376;SDS011;14353;46.070;13.222;2023-02-01T03:56:39;10.73;;;9.27;;
23376;SDS011;14353;46.070;13.222;2023-02-01T03:59:09;13.40;;;10.10;;
23376;SDS011;14353;46.070;13.222;2023-02-01T04:01:36;11.57;;;9.85;;
23376;SDS011;14353;46.070;13.222;2023-02-01T04:04:01;11.48;;;9.93;;
23376;SDS011;14353;46.070;13.222;2023-02-01T04:06:27;11.95;;;10.00;;
23376;SDS011;14353;46.070;13.222;2023-02-01T04:08:53;11.23;;;9.32;;
23376;SDS011;14353;46.070;13.222;2023-02-01T04:11:19;12.35;;;9.82;;
23376;SDS011;14353;46.070;13.222;2023-02-01T04:13:44;12.02;;;9.55;;
23376;SDS011;14353;46.070;13.222;2023-02-01T04:16:10;11.77;;;9.98;;
23376;SDS011;14353;46.070;13.222;2023-02-01T04:18:36;11.23;;;9.70;;
23376;SDS011;14353;46.070;13.222;2023-02-01T04:21:02;11.43;;;9.48;;
23376;SDS011;14353;46.070;13.222;2023-02-01T04:23:28;11.57;;;9.55;;
23376;SDS011;14353;46.070;13.222;2023-02-01T04:25:58;11.70;;;9.63;;
23376;SDS011;14353;46.070;13.222;2023-02-01T04:28:25;11.25;;;9.63;;
23376;SDS011;14353;46.070;13.222;2023-02-01T04:30:51;12.15;;;9.57;;
23376;SDS011;14353;46.070;13.222;2023-02-01T04:33:17;10.48;;;9.32;;
23376;SDS011;14353;46.070;13.222;2023-02-01T04:35:42;10.15;;;8.90;;
23376;SDS011;14353;46.070;13.222;2023-02-01T04:38:08;11.23;;;9.38;;
23376;SDS011;14353;46.070;13.222;2023-02-01T04:40:34;11.23;;;9.48;;
23376;SDS011;14353;46.070;13.222;2023-02-01T04:43:02;11.68;;;9.40;;
23376;SDS011;14353;46.070;13.222;2023-02-01T04:45:29;10.35;;;8.60;;
23376;SDS011;14353;46.070;13.222;2023-02-01T04:47:55;10.90;;;9.13;;
23376;SDS011;14353;46.070;13.222;2023-02-01T04:50:21;10.90;;;9.10;;
23376;SDS011;14353;46.070;13.222;2023-02-01T04:52:48;10.20;;;8.75;;
23376;SDS011;14353;46.070;13.222;2023-02-01T04:55:14;11.10;;;9.05;;
23376;SDS011;14353;46.070;13.222;2023-02-01T04:57:40;10.52;;;9.05;;
23376;SDS011;14353;46.070;13.222;2023-02-01T05:00:06;10.15;;;9.02;;
23376;SDS011;14353;46.070;13.222;2023-02-01T05:02:33;10.57;;;8.77;;
23376;SDS011;14353;46.070;13.222;2023-02-01T05:05:00;10.52;;;8.95;;
23376;SDS011;14353;46.070;13.222;2023-02-01T05:07:29;10.60;;;9.13;;
23376;SDS011;14353;46.070;13.222;2023-02-01T05:09:55;10.95;;;9.00;;
23376;SDS011;14353;46.070;13.222;2023-02-01T05:12:20;11.00;;;9.05;;
23376;SDS011;14353;46.070;13.222;2023-02-01T05:15:05;10.65;;;8.95;;
23376;SDS011;14353;46.070;13.222;2023-02-01T05:17:34;11.52;;;9.10;;
23376;SDS011;14353;46.070;13.222;2023-02-01T05:20:00;11.07;;;9.25;;
23376;SDS011;14353;46.070;13.222;2023-02-01T05:22:25;11.38;;;8.88;;
23376;SDS011;14353;46.070;13.222;2023-02-01T05:24:51;10.18;;;8.75;;
23376;SDS011;14353;46.070;13.222;2023-02-01T05:27:17;9.57;;;8.55;;
23376;SDS011;14353;46.070;13.222;2023-02-01T05:29:42;9.93;;;8.88;;
23376;SDS011;14353;46.070;13.222;2023-02-01T05:32:09;10.32;;;8.30;;
23376;SDS011;14353;46.070;13.222;2023-02-01T05:34:35;10.27;;;9.05;;
23376;SDS011;14353;46.070;13.222;2023-02-01T05:37:02;9.70;;;8.27;;
23376;SDS011;14353;46.070;13.222;2023-02-01T05:39:27;10.85;;;8.75;;
23376;SDS011;14353;46.070;13.222;2023-02-01T05:41:53;9.90;;;8.68;;
23376;SDS011;14353;46.070;13.222;2023-02-01T05:44:19;10.80;;;8.60;;
23376;SDS011;14353;46.070;13.222;2023-02-01T05:46:44;10.60;;;8.38;;
23376;SDS011;14353;46.070;13.222;2023-02-01T05:49:10;10.68;;;9.13;;
23376;SDS011;14353;46.070;13.222;2023-02-01T05:51:36;11.40;;;8.80;;
23376;SDS011;14353;46.070;13.222;2023-02-01T05:54:02;10.25;;;8.52;;
23376;SDS011;14353;46.070;13.222;2023-02-01T05:56:27;9.15;;;8.23;;
23376;SDS011;14353;46.070;13.222;2023-02-01T05:58:53;11.48;;;8.25;;
23376;SDS011;14353;46.070;13.222;2023-02-01T06:01:19;10.02;;;8.40;;
23376;SDS011;14353;46.070;13.222;2023-02-01T06:03:44;10.75;;;8.98;;
23376;SDS011;14353;46.070;13.222;2023-02-01T06:06:10;9.63;;;8.23;;
23376;SDS011;14353;46.070;13.222;2023-02-01T06:08:36;10.32;;;8.25;;
23376;SDS011;14353;46.070;13.222;2023-02-01T06:11:05;10.35;;;8.15;;
23376;SDS011;14353;46.070;13.222;2023-02-01T06:13:31;9.02;;;7.93;;
23376;SDS011;14353;46.070;13.222;2023-02-01T06:15:57;9.80;;;8.13;;
23376;SDS011;14353;46.070;13.222;2023-02-01T06:18:23;10.57;;;8.60;;
23376;SDS011;14353;46.070;13.222;2023-02-01T06:20:53;10.27;;;8.18;;
23376;SDS011;14353;46.070;13.222;2023-02-01T06:23:19;10.20;;;8.25;;
23376;SDS011;14353;46.070;13.222;2023-02-01T06:25:52;10.35;;;8.45;;
23376;SDS011;14353;46.070;13.222;2023-02-01T06:28:24;11.23;;;8.85;;
23376;SDS011;14353;46.070;13.222;2023-02-01T06:30:50;12.30;;;8.90;;
23376;SDS011;14353;46.070;13.222;2023-02-01T06:33:16;10.55;;;8.60;;
23376;SDS011;14353;46.070;13.222;2023-02-01T06:35:42;10.88;;;9.55;;
23376;SDS011;14353;46.070;13.222;2023-02-01T06:38:09;11.05;;;8.90;;
23376;SDS011;14353;46.070;13.222;2023-02-01T06:40:36;10.73;;;9.15;;
23376;SDS011;14353;46.070;13.222;2023-02-01T06:43:02;11.20;;;9.18;;
23376;SDS011;14353;46.070;13.222;2023-02-01T06:45:28;11.45;;;8.70;;
23376;SDS011;14353;46.070;13.222;2023-02-01T06:47:54;12.98;;;9.60;;
23376;SDS011;14353;46.070;13.222;2023-02-01T06:50:20;11.75;;;9.65;;
23376;SDS011;14353;46.070;13.222;2023-02-01T06:52:46;13.00;;;9.57;;
23376;SDS011;14353;46.070;13.222;2023-02-01T06:55:12;12.90;;;9.48;;
23376;SDS011;14353;46.070;13.222;2023-02-01T06:57:38;14.52;;;9.35;;
23376;SDS011;14353;46.070;13.222;2023-02-01T07:00:04;15.85;;;9.73;;
23376;SDS011;14353;46.070;13.222;2023-02-01T07:02:30;14.40;;;9.40;;
23376;SDS011;14353;46.070;13.222;2023-02-01T07:04:56;13.50;;;9.15;;
23376;SDS011;14353;46.070;13.222;2023-02-01T07:07:22;13.68;;;9.43;;
23376;SDS011;14353;46.070;13.222;2023-02-01T07:09:48;12.10;;;8.98;;
23376;SDS011;14353;46.070;13.222;2023-02-01T07:12:15;14.25;;;9.73;;
23376;SDS011;14353;46.070;13.222;2023-02-01T07:14:45;16.98;;;10.02;;
23376;SDS011;14353;46.070;13.222;2023-02-01T07:17:14;12.98;;;8.77;;
23376;SDS011;14353;46.070;13.222;2023-02-01T07:19:46;16.10;;;9.73;;
23376;SDS011;14353;46.070;13.222;2023-02-01T07:22:27;15.63;;;10.18;;
23376;SDS011;14353;46.070;13.222;2023-02-01T07:24:56;14.77;;;9.60;;
23376;SDS011;14353;46.070;13.222;2023-02-01T07:27:24;16.60;;;9.10;;
23376;SDS011;14353;46.070;13.222;2023-02-01T07:29:51;15.05;;;9.43;;
23376;SDS011;14353;46.070;13.222;2023-02-01T07:32:17;14.98;;;9.35;;
23376;SDS011;14353;46.070;13.222;2023-02-01T07:34:43;15.15;;;9.75;;
23376;SDS011;14353;46.070;13.222;2023-02-01T07:37:10;16.55;;;9.75;;
23376;SDS011;14353;46.070;13.222;2023-02-01T07:39:35;13.35;;;8.60;;
23376;SDS011;14353;46.070;13.222;2023-02-01T07:42:01;15.75;;;10.07;;
23376;SDS011;14353;46.070;13.222;2023-02-01T07:44:27;16.17;;;10.15;;
23376;SDS011;14353;46.070;13.222;2023-02-01T07:46:52;14.00;;;9.60;;
23376;SDS011;14353;46.070;13.222;2023-02-01T07:49:18;13.23;;;9.80;;
23376;SDS011;14353;46.070;13.222;2023-02-01T07:51:44;14.27;;;8.93;;
23376;SDS011;14353;46.070;13.222;2023-02-01T07:54:10;14.93;;;9.77;;
23376;SDS011;14353;46.070;13.222;2023-02-01T07:56:35;15.45;;;9.30;;
23376;SDS011;14353;46.070;13.222;2023-02-01T07:59:01;16.27;;;8.93;;
23376;SDS011;14353;46.070;13.222;2023-02-01T08:01:27;14.80;;;9.60;;
23376;SDS011;14353;46.070;13.222;2023-02-01T08:03:55;14.68;;;9.88;;
23376;SDS011;14353;46.070;13.222;2023-02-01T08:06:22;13.70;;;9.75;;
23376;SDS011;14353;46.070;13.222;2023-02-01T08:08:49;13.35;;;9.35;;
23376;SDS011;14353;46.070;13.222;2023-02-01T08:11:16;14.93;;;9.65;;
23376;SDS011;14353;46.070;13.222;2023-02-01T08:13:43;14.57;;;9.75;;
23376;SDS011;14353;46.070;13.222;2023-02-01T08:16:09;18.10;;;9.98;;
23376;SDS011;14353;46.070;13.222;2023-02-01T08:18:37;18.13;;;10.07;;
23376;SDS011;14353;46.070;13.222;2023-02-01T08:21:04;16.52;;;8.95;;
23376;SDS011;14353;46.070;13.222;2023-02-01T08:23:32;15.80;;;9.20;;
23376;SDS011;14353;46.070;13.222;2023-02-01T08:26:17;17.67;;;9.55;;
23376;SDS011;14353;46.070;13.222;2023-02-01T08:28:49;20.33;;;9.00;;
23376;SDS011;14353;46.070;13.222;2023-02-01T08:31:20;15.00;;;9.52;;
23376;SDS011;14353;46.070;13.222;2023-02-01T08:33:49;16.05;;;9.20;;
23376;SDS011;14353;46.070;13.222;2023-02-01T08:36:16;17.30;;;9.13;;
23376;SDS011;14353;46.070;13.222;2023-02-01T08:38:45;14.20;;;9.88;;
23376;SDS011;14353;46.070;13.222;2023-02-01T08:41:15;12.90;;;9.38;;
23376;SDS011;14353;46.070;13.222;2023-02-01T08:43:43;14.82;;;9.55;;
23376;SDS011;14353;46.070;13.222;2023-02-01T08:46:13;18.55;;;9.45;;
23376;SDS011;14353;46.070;13.222;2023-02-01T08:48:39;12.95;;;8.38;;
23376;SDS011;14353;46.070;13.222;2023-02-01T08:51:06;15.10;;;9.00;;
23376;SDS011;14353;46.070;13.222;2023-02-01T08:53:34;17.17;;;9.02;;
23376;SDS011;14353;46.070;13.222;2023-02-01T08:56:01;13.43;;;9.60;;
23376;SDS011;14353;46.070;13.222;2023-02-01T08:58:27;14.80;;;9.52;;
23376;SDS011;14353;46.070;13.222;2023-02-01T09:00:53;15.88;;;9.18;;
23376;SDS011;14353;46.070;13.222;2023-02-01T09:03:19;15.25;;;9.70;;
23376;SDS011;14353;46.070;13.222;2023-02-01T09:05:45;15.43;;;9.70;;
23376;SDS011;14353;46.070;13.222;2023-02-01T09:08:11;18.73;;;10.10;;
23376;SDS011;14353;46.070;13.222;2023-02-01T09:10:40;15.60;;;9.15;;
23376;SDS011;14353;46.070;13.222;2023-02-01T09:13:08;18.95;;;9.80;;
23376;SDS011;14353;46.070;13.222;2023-02-01T09:15:34;15.18;;;9.60;;
23376;SDS011;14353;46.070;13.222;2023-02-01T09:18:00;15.95;;;9.23;;
23376;SDS011;14353;46.070;13.222;2023-02-01T09:20:26;16.20;;;9.38;;
23376;SDS011;14353;46.070;13.222;2023-02-01T09:22:52;14.05;;;9.25;;
23376;SDS011;14353;46.070;13.222;2023-02-01T09:25:19;14.50;;;8.55;;
23376;SDS011;14353;46.070;13.222;2023-02-01T09:27:45;19.35;;;10.02;;
23376;SDS011;14353;46.070;13.222;2023-02-01T09:30:11;14.98;;;8.65;;
23376;SDS011;14353;46.070;13.222;2023-02-01T09:32:37;14.57;;;8.75;;
23376;SDS011;14353;46.070;13.222;2023-02-01T09:35:02;14.40;;;9.20;;
23376;SDS011;14353;46.070;13.222;2023-02-01T09:37:28;15.27;;;9.10;;
23376;SDS011;14353;46.070;13.222;2023-02-01T09:39:54;14.57;;;8.77;;
23376;SDS011;14353;46.070;13.222;2023-02-01T09:43:06;12.65;;;8.68;;
23376;SDS011;14353;46.070;13.222;2023-02-01T09:48:02;12.10;;;8.50;;
23376;SDS011;14353;46.070;13.222;2023-02-01T09:50:42;14.75;;;9.15;;
23376;SDS011;14353;46.070;13.222;2023-02-01T09:53:21;13.35;;;9.00;;
23376;SDS011;14353;46.070;13.222;2023-02-01T09:55:54;11.43;;;8.80;;
23376;SDS011;14353;46.070;13.222;2023-02-01T09:58:38;15.80;;;8.98;;
23376;SDS011;14353;46.070;13.222;2023-02-01T10:01:16;18.05;;;9.43;;
23376;SDS011;14353;46.070;13.222;2023-02-01T10:03:45;18.27;;;9.82;;
23376;SDS011;14353;46.070;13.222;2023-02-01T10:06:20;14.23;;;8.95;;
23376;SDS011;14353;46.070;13.222;2023-02-01T10:09:19;16.70;;;8.98;;
23376;SDS011;14353;46.070;13.222;2023-02-01T10:20:29;15.90;;;9.60;;
23376;SDS011;14353;46.070;13.222;2023-02-01T10:28:24;17.17;;;9.45;;
23376;SDS011;14353;46.070;13.222;2023-02-01T10:30:52;20.13;;;8.85;;
23376;SDS011;14353;46.070;13.222;2023-02-01T10:33:24;16.70;;;8.50;;
23376;SDS011;14353;46.070;13.222;2023-02-01T10:36:21;16.63;;;8.63;;
23376;SDS011;14353;46.070;13.222;2023-02-01T10:38:52;12.82;;;8.35;;
23376;SDS011;14353;46.070;13.222;2023-02-01T10:41:19;15.27;;;8.48;;
23376;SDS011;14353;46.070;13.222;2023-02-01T10:43:52;12.48;;;8.70;;
23376;SDS011;14353;46.070;13.222;2023-02-01T10:46:20;14.90;;;8.18;;
23376;SDS011;14353;46.070;13.222;2023-02-01T10:48:48;14.20;;;8.43;;
23376;SDS011;14353;46.070;13.222;2023-02-01T10:54:17;15.27;;;8.18;;
23376;SDS011;14353;46.070;13.222;2023-02-01T10:56:47;14.35;;;8.20;;
23376;SDS011;14353;46.070;13.222;2023-02-01T10:59:16;11.55;;;8.40;;
23376;SDS011;14353;46.070;13.222;2023-02-01T11:01:43;13.73;;;8.23;;
23376;SDS011;14353;46.070;13.222;2023-02-01T11:04:18;9.98;;;7.45;;
23376;SDS011;14353;46.070;13.222;2023-02-01T11:07:12;13.13;;;7.75;;
23376;SDS011;14353;46.070;13.222;2023-02-01T11:09:48;13.68;;;7.70;;
23376;SDS011;14353;46.070;13.222;2023-02-01T11:14:58;13.68;;;7.68;;
23376;SDS011;14353;46.070;13.222;2023-02-01T11:17:46;16.80;;;8.30;;
23376;SDS011;14353;46.070;13.222;2023-02-01T11:20:38;13.93;;;8.00;;
23376;SDS011;14353;46.070;13.222;2023-02-01T11:23:12;16.25;;;8.02;;
23376;SDS011;14353;46.070;13.222;2023-02-01T11:25:51;12.98;;;8.00;;
23376;SDS011;14353;46.070;13.222;2023-02-01T11:28:17;11.32;;;7.40;;
23376;SDS011;14353;46.070;13.222;2023-02-01T11:30:45;12.02;;;7.47;;
23376;SDS011;14353;46.070;13.222;2023-02-01T11:33:16;11.90;;;7.45;;
23376;SDS011;14353;46.070;13.222;2023-02-01T11:35:44;12.45;;;8.60;;
23376;SDS011;14353;46.070;13.222;2023-02-01T11:38:28;11.20;;;7.63;;
23376;SDS011;14353;46.070;13.222;2023-02-01T11:46:19;12.90;;;7.95;;
23376;SDS011;14353;46.070;13.222;2023-02-01T11:48:50;11.93;;;7.50;;
23376;SDS011;14353;46.070;13.222;2023-02-01T11:51:33;12.88;;;7.65;;
23376;SDS011;14353;46.070;13.222;2023-02-01T11:57:40;14.48;;;8.77;;
23376;SDS011;14353;46.070;13.222;2023-02-01T12:00:29;11.02;;;7.38;;
23376;SDS011;14353;46.070;13.222;2023-02-01T12:05:53;23.77;;;10.02;;
23376;SDS011;14353;46.070;13.222;2023-02-01T12:13:48;14.48;;;8.40;;
23376;SDS011;14353;46.070;13.222;2023-02-01T12:33:18;15.93;;;8.20;;
23376;SDS011;14353;46.070;13.222;2023-02-01T12:36:12;12.95;;;7.82;;
23376;SDS011;14353;46.070;13.222;2023-02-01T12:47:01;17.10;;;8.02;;
23376;SDS011;14353;46.070;13.222;2023-02-01T12:52:27;20.73;;;14.52;;
23376;SDS011;14353;46.070;13.222;2023-02-01T12:55:08;23.42;;;13.35;;
23376;SDS011;14353;46.070;13.222;2023-02-01T12:57:43;16.67;;;11.85;;
23376;SDS011;14353;46.070;13.222;2023-02-01T13:00:25;17.20;;;11.80;;
23376;SDS011;14353;46.070;13.222;2023-02-01T13:05:50;15.20;;;10.70;;
23376;SDS011;14353;46.070;13.222;2023-02-01T13:08:22;16.83;;;10.45;;
23376;SDS011;14353;46.070;13.222;2023-02-01T13:10:54;14.95;;;10.52;;
23376;SDS011;14353;46.070;13.222;2023-02-01T13:13:44;15.45;;;10.40;;
23376;SDS011;14353;46.070;13.222;2023-02-01T13:18:52;14.48;;;10.27;;
23376;SDS011;14353;46.070;13.222;2023-02-01T13:21:41;13.18;;;9.70;;
23376;SDS011;14353;46.070;13.222;2023-02-01T13:24:27;14.35;;;8.85;;
23376;SDS011;14353;46.070;13.222;2023-02-01T13:27:01;17.27;;;10.23;;
23376;SDS011;14353;46.070;13.222;2023-02-01T13:29:27;13.45;;;8.80;;
23376;SDS011;14353;46.070;13.222;2023-02-01T13:32:11;12.45;;;8.82;;
23376;SDS011;14353;46.070;13.222;2023-02-01T13:37:43;12.82;;;8.68;;
23376;SDS011;14353;46.070;13.222;2023-02-01T13:43:18;22.42;;;16.55;;
23376;SDS011;14353;46.070;13.222;2023-02-01T13:45:52;22.85;;;16.95;;
23376;SDS011;14353;46.070;13.222;2023-02-01T13:48:28;22.75;;;16.20;;
23376;SDS011;14353;46.070;13.222;2023-02-01T13:51:01;23.13;;;16.15;;
23376;SDS011;14353;46.070;13.222;2023-02-01T13:53:28;21.17;;;15.55;;
23376;SDS011;14353;46.070;13.222;2023-02-01T13:56:03;23.63;;;15.07;;
23376;SDS011;14353;46.070;13.222;2023-02-01T13:58:36;25.33;;;15.57;;
23376;SDS011;14353;46.070;13.222;2023-02-01T14:11:39;26.63;;;16.23;;
23376;SDS011;14353;46.070;13.222;2023-02-01T14:19:22;21.45;;;14.00;;
23376;SDS011;14353;46.070;13.222;2023-02-01T14:21:57;18.58;;;13.57;;
23376;SDS011;14353;46.070;13.222;2023-02-01T14:24:52;22.30;;;14.70;;
23376;SDS011;14353;46.070;13.222;2023-02-01T14:27:21;24.02;;;15.00;;
23376;SDS011;14353;46.070;13.222;2023-02-01T14:30:01;20.70;;;14.90;;
23376;SDS011;14353;46.070;13.222;2023-02-01T14:32:36;28.33;;;15.57;;
23376;SDS011;14353;46.070;13.222;2023-02-01T14:35:19;24.08;;;16.05;;
23376;SDS011;14353;46.070;13.222;2023-02-01T14:37:52;23.23;;;15.65;;
23376;SDS011;14353;46.070;13.222;2023-02-01T14:40:25;21.42;;;15.30;;
23376;SDS011;14353;46.070;13.222;2023-02-01T14:42:53;24.60;;;15.82;;
23376;SDS011;14353;46.070;13.222;2023-02-01T14:55:43;18.67;;;13.25;;
23376;SDS011;14353;46.070;13.222;2023-02-01T14:58:21;19.42;;;13.00;;
23376;SDS011;14353;46.070;13.222;2023-02-01T15:06:38;15.88;;;12.27;;
23376;SDS011;14353;46.070;13.222;2023-02-01T15:09:13;15.35;;;12.18;;
23376;SDS011;14353;46.070;13.222;2023-02-01T15:12:00;15.02;;;11.55;;
23376;SDS011;14353;46.070;13.222;2023-02-01T15:14:40;17.25;;;11.57;;
23376;SDS011;14353;46.070;13.222;2023-02-01T15:17:20;15.82;;;11.65;;
23376;SDS011;14353;46.070;13.222;2023-02-01T15:19:56;18.05;;;10.40;;
23376;SDS011;14353;46.070;13.222;2023-02-01T15:22:51;17.52;;;10.80;;
23376;SDS011;14353;46.070;13.222;2023-02-01T15:25:31;15.75;;;10.55;;
23376;SDS011;14353;46.070;13.222;2023-02-01T15:28:00;15.80;;;10.50;;
23376;SDS011;14353;46.070;13.222;2023-02-01T15:30:27;15.20;;;11.13;;
23376;SDS011;14353;46.070;13.222;2023-02-01T15:46:15;12.30;;;9.93;;
23376;SDS011;14353;46.070;13.222;2023-02-01T15:48:44;12.75;;;9.73;;
23376;SDS011;14353;46.070;13.222;2023-02-01T15:51:17;12.57;;;10.20;;
23376;SDS011;14353;46.070;13.222;2023-02-01T15:54:07;11.88;;;10.05;;
23376;SDS011;14353;46.070;13.222;2023-02-01T15:56:34;10.98;;;9.55;;
23376;SDS011;14353;46.070;13.222;2023-02-01T15:59:03;11.60;;;9.38;;
23376;SDS011;14353;46.070;13.222;2023-02-01T16:01:40;13.05;;;10.10;;
23376;SDS011;14353;46.070;13.222;2023-02-01T16:07:00;11.23;;;9.32;;
23376;SDS011;14353;46.070;13.222;2023-02-01T16:09:39;12.77;;;9.77;;
23376;SDS011;14353;46.070;13.222;2023-02-01T16:12:29;12.50;;;9.48;;
23376;SDS011;14353;46.070;13.222;2023-02-01T16:14:56;13.13;;;9.55;;
23376;SDS011;14353;46.070;13.222;2023-02-01T16:17:21;10.43;;;9.15;;
23376;SDS011;14353;46.070;13.222;2023-02-01T16:19:47;11.40;;;9.10;;
23376;SDS011;14353;46.070;13.222;2023-02-01T16:22:13;14.38;;;9.32;;
23376;SDS011;14353;46.070;13.222;2023-02-01T16:24:38;13.00;;;9.48;;
23376;SDS011;14353;46.070;13.222;2023-02-01T16:27:04;11.43;;;9.30;;
23376;SDS011;14353;46.070;13.222;2023-02-01T16:29:32;12.23;;;9.30;;
23376;SDS011;14353;46.070;13.222;2023-02-01T16:31:58;13.45;;;9.55;;
23376;SDS011;14353;46.070;13.222;2023-02-01T16:34:24;12.48;;;9.98;;
23376;SDS011;14353;46.070;13.222;2023-02-01T16:36:51;11.63;;;9.40;;
23376;SDS011;14353;46.070;13.222;2023-02-01T16:39:20;13.63;;;9.77;;
23376;SDS011;14353;46.070;13.222;2023-02-01T16:41:46;11.23;;;8.98;;
23376;SDS011;14353;46.070;13.222;2023-02-01T16:44:11;13.73;;;9.35;;
23376;SDS011;14353;46.070;13.222;2023-02-01T16:46:40;11.48;;;9.30;;
23376;SDS011;14353;46.070;13.222;2023-02-01T16:49:19;12.52;;;9.40;;
23376;SDS011;14353;46.070;13.222;2023-02-01T16:51:50;10.00;;;8.98;;
23376;SDS011;14353;46.070;13.222;2023-02-01T16:54:20;11.30;;;9.50;;
23376;SDS011;14353;46.070;13.222;2023-02-01T16:56:46;12.27;;;9.52;;
23376;SDS011;14353;46.070;13.222;2023-02-01T16:59:11;10.10;;;9.02;;
23376;SDS011;14353;46.070;13.222;2023-02-01T17:01:38;11.93;;;8.93;;
23376;SDS011;14353;46.070;13.222;2023-02-01T17:04:06;11.10;;;9.18;;
23376;SDS011;14353;46.070;13.222;2023-02-01T17:06:33;11.55;;;9.10;;
23376;SDS011;14353;46.070;13.222;2023-02-01T17:09:04;11.70;;;8.93;;
23376;SDS011;14353;46.070;13.222;2023-02-01T17:11:30;12.05;;;9.60;;
23376;SDS011;14353;46.070;13.222;2023-02-01T17:13:57;13.48;;;9.70;;
23376;SDS011;14353;46.070;13.222;2023-02-01T17:16:46;10.07;;;9.05;;
23376;SDS011;14353;46.070;13.222;2023-02-01T17:19:14;11.85;;;9.00;;
23376;SDS011;14353;46.070;13.222;2023-02-01T17:21:47;12.45;;;9.40;;
23376;SDS011;14353;46.070;13.222;2023-02-01T17:24:19;11.05;;;9.77;;
23376;SDS011;14353;46.070;13.222;2023-02-01T17:26:47;11.60;;;9.10;;